createdAt,value
2023-04-28T03:46:25.984Z,909.58
2023-04-28T03:48:53.554Z,905.10
2023-04-28T03:51:20.344Z,901.17
2023-04-28T03:53:47.101Z,901.83
2023-04-28T03:56:13.799Z,903.90
2023-04-28T03:58:41.122Z,902.42
2023-04-28T04:01:07.764Z,902.73
2023-04-28T04:03:34.636Z,907.03
2023-04-28T04:06:01.947Z,909.90
2023-04-28T04:08:28.838Z,899.88
2023-04-28T04:10:55.930Z,905.30
2023-04-28T04:13:22.952Z,905.63
2023-04-28T04:15:50.689Z,901.20
2023-04-28T04:18:17.438Z,912.17
2023-04-28T04:20:44.215Z,900.25
2023-04-28T04:23:10.914Z,908.05
2023-04-28T04:25:37.630Z,903.67
2023-04-28T04:28:04.573Z,910.22
2023-04-28T04:30:31.374Z,904.50
2023-04-28T04:32:58.094Z,901.22
2023-04-28T04:35:24.964Z,902.37
2023-04-28T04:37:51.817Z,904.88
2023-04-28T04:40:18.528Z,908.38
2023-04-28T04:42:45.355Z,900.03
2023-04-28T04:45:12.346Z,896.43
2023-04-28T04:47:39.239Z,905.58
2023-04-28T04:50:06.978Z,901.30
2023-04-28T04:52:33.692Z,893.97
2023-04-28T04:55:00.433Z,893.58
2023-04-28T04:57:27.251Z,896.35
2023-04-28T04:59:54.039Z,896.85
2023-04-28T05:02:20.845Z,897.85
2023-04-28T05:04:47.740Z,897.42
2023-04-28T05:07:14.468Z,895.75
2023-04-28T05:09:41.152Z,886.53
2023-04-28T05:12:08.113Z,893.08
2023-04-28T05:14:35.087Z,897.70
2023-04-28T05:17:01.809Z,891.55
2023-04-28T05:19:28.539Z,898.92
2023-04-28T05:21:55.317Z,894.75
2023-04-28T05:24:25.311Z,902.10
2023-04-28T05:26:52.832Z,900.72
2023-04-28T05:29:20.033Z,903.90
2023-04-28T05:31:46.831Z,906.53
2023-04-28T05:34:13.573Z,903.90
2023-04-28T05:36:40.628Z,914.58
2023-04-28T05:39:07.460Z,906.63
2023-04-28T05:41:36.578Z,899.80
2023-04-28T05:44:03.974Z,907.15
2023-04-28T05:46:31.456Z,903.45
2023-04-28T05:48:58.370Z,904.72
2023-04-28T05:51:25.411Z,910.70
2023-04-28T05:53:52.126Z,911.17
2023-04-28T05:56:19.210Z,908.08
2023-04-28T05:58:46.525Z,907.30
2023-04-28T06:01:13.519Z,916.65
2023-04-28T06:03:42.113Z,911.20
2023-04-28T06:06:12.897Z,913.47
2023-04-28T06:08:40.136Z,912.67
2023-04-28T06:11:07.088Z,912.17
2023-04-28T06:13:33.774Z,904.13
2023-04-28T06:16:00.718Z,902.63
2023-04-28T06:18:27.589Z,905.45
2023-04-28T06:20:54.255Z,913.58
2023-04-28T06:23:21.050Z,910.95
2023-04-28T06:25:48.190Z,926.78
2023-04-28T06:28:15.115Z,912.05
2023-04-28T06:30:42.020Z,910.90
2023-04-28T06:33:09.092Z,908.58
2023-04-28T06:35:38.373Z,908.28
2023-04-28T06:38:06.048Z,917.47
2023-04-28T06:40:32.699Z,915.20
2023-04-28T06:42:59.381Z,918.63
2023-04-28T06:45:26.418Z,918.70
2023-04-28T06:47:55.868Z,909.78
2023-04-28T06:50:24.008Z,922.67
2023-04-28T06:52:50.990Z,919.40
2023-04-28T06:55:17.984Z,921.92
2023-04-28T06:57:44.987Z,918.10
2023-04-28T07:00:12.798Z,920.97
2023-04-28T07:02:39.736Z,914.22
2023-04-28T07:05:06.946Z,920.92
2023-04-28T07:07:33.632Z,923.38
2023-04-28T07:10:01.088Z,917.45
2023-04-28T07:12:28.136Z,921.10
2023-04-28T07:14:55.803Z,924.30
2023-04-28T07:17:22.589Z,922.20
2023-04-28T07:19:50.932Z,924.42
2023-04-28T07:22:18.278Z,925.90
2023-04-28T07:24:45.121Z,925.77
2023-04-28T07:27:11.819Z,925.10
2023-04-28T07:29:38.583Z,934.15
2023-04-28T07:32:08.201Z,921.67
2023-04-28T07:34:38.329Z,934.90
2023-04-28T07:37:05.262Z,927.87
2023-04-28T07:39:34.763Z,928.27
2023-04-28T07:42:03.151Z,924.20
2023-04-28T07:44:30.480Z,917.72
2023-04-28T07:46:57.488Z,922.67
2023-04-28T07:49:24.215Z,920.35
2023-04-28T07:51:53.561Z,909.05
2023-04-28T07:54:20.377Z,909.90
2023-04-28T07:56:47.378Z,908.78
2023-04-28T07:59:14.709Z,900.85
2023-04-28T08:01:42.922Z,905.40
2023-04-28T08:04:10.041Z,907.28
2023-04-28T08:06:36.910Z,911.35
2023-04-28T08:09:05.912Z,910.33
2023-04-28T08:11:33.449Z,914.38
2023-04-28T08:14:02.923Z,913.83
2023-04-28T08:16:30.862Z,918.85
2023-04-28T08:18:58.307Z,908.78
2023-04-28T08:21:25.153Z,905.53
2023-04-28T08:23:51.838Z,919.90
2023-04-28T08:26:18.601Z,922.25
2023-04-28T08:28:45.356Z,920.53
2023-04-28T08:31:12.117Z,918.35
2023-04-28T08:33:39.048Z,913.60
2023-04-28T08:36:06.361Z,915.47
2023-04-28T08:38:33.180Z,917.83
2023-04-28T08:40:59.892Z,914.25
2023-04-28T08:43:28.483Z,914.67
2023-04-28T08:45:55.371Z,923.20
2023-04-28T08:48:22.963Z,923.05
2023-04-28T08:50:52.585Z,926.20
2023-04-28T08:53:25.205Z,931.85
2023-04-28T08:55:56.459Z,932.42
2023-04-28T08:58:24.837Z,943.85
2023-04-28T09:00:52.930Z,948.90
2023-04-28T09:03:20.144Z,947.22
2023-04-28T09:05:47.339Z,950.47
2023-04-28T09:08:14.178Z,954.22
2023-04-28T09:10:41.450Z,959.67
2023-04-28T09:13:08.166Z,942.25
2023-04-28T09:15:37.369Z,944.97
2023-04-28T09:18:06.193Z,940.08
2023-04-28T09:20:34.342Z,943.92
2023-04-28T09:23:19.392Z,940.40
2023-04-28T09:26:07.546Z,938.08
2023-04-28T09:28:35.769Z,938.27
2023-04-28T09:31:02.986Z,941.53
2023-04-28T09:33:30.061Z,941.05
2023-04-28T09:35:56.855Z,937.67
2023-04-28T09:38:23.974Z,938.10
2023-04-28T09:40:56.777Z,930.13
2023-04-28T09:43:32.232Z,919.63
2023-04-28T09:46:01.559Z,922.70
2023-04-28T09:48:32.350Z,925.38
2023-04-28T09:51:01.023Z,924.92
2023-04-28T09:53:28.987Z,936.88
2023-04-28T09:55:58.264Z,929.60
2023-04-28T09:58:26.306Z,938.80
2023-04-28T10:00:58.077Z,937.42
2023-04-28T10:03:30.611Z,943.33
2023-04-28T10:05:58.976Z,963.70
2023-04-28T10:08:27.440Z,975.00
2023-04-28T10:10:54.696Z,973.47
2023-04-28T10:13:22.688Z,970.42
2023-04-28T10:15:50.735Z,971.97
2023-04-28T10:18:18.415Z,973.83
2023-04-28T10:20:57.588Z,972.30
2023-04-28T10:24:21.329Z,970.42
2023-04-28T10:27:08.732Z,957.17
2023-04-28T10:29:36.572Z,946.35
2023-04-28T10:32:19.537Z,948.25
2023-04-28T10:34:47.057Z,948.88
2023-04-28T10:37:18.910Z,960.35
2023-04-28T10:40:27.561Z,963.27
2023-04-28T10:42:56.540Z,947.97
2023-04-28T10:45:56.520Z,965.58
2023-04-28T10:48:46.850Z,967.40
2023-04-28T10:51:16.628Z,955.60
2023-04-28T10:53:47.075Z,961.20
2023-04-28T10:56:25.194Z,963.83
2023-04-28T10:58:56.402Z,966.38
2023-04-28T11:01:30.792Z,969.25
2023-04-28T11:04:13.933Z,957.90
2023-04-28T11:06:41.804Z,969.23
2023-04-28T11:09:20.980Z,968.83
2023-04-28T11:11:59.837Z,964.50
2023-04-28T11:14:29.971Z,960.70
2023-04-28T11:17:00.548Z,960.28
2023-04-28T11:19:39.260Z,966.55
2023-04-28T11:22:20.487Z,961.63
2023-04-28T11:24:58.025Z,961.45
2023-04-28T11:27:28.763Z,964.22
2023-04-28T11:29:56.003Z,972.88
2023-04-28T11:32:35.586Z,951.85
2023-04-28T11:35:04.568Z,953.58
2023-04-28T11:37:31.468Z,967.70
2023-04-28T11:39:58.195Z,973.97
2023-04-28T11:42:27.113Z,974.10
2023-04-28T11:44:54.945Z,975.78
2023-04-28T11:47:34.903Z,979.65
2023-04-28T11:50:02.833Z,975.92
2023-04-28T11:52:29.613Z,980.83
2023-04-28T11:54:59.109Z,979.00
2023-04-28T11:57:26.720Z,982.35
2023-04-28T11:59:53.582Z,982.00
2023-04-28T12:02:28.987Z,988.27
2023-04-28T12:04:56.390Z,985.83
2023-04-28T12:07:23.720Z,991.70
2023-04-28T12:10:16.719Z,986.90
2023-04-28T12:12:50.884Z,983.85
2023-04-28T12:15:20.747Z,985.25
2023-04-28T12:17:48.350Z,987.45
2023-04-28T12:20:38.689Z,985.20
2023-04-28T12:23:06.154Z,983.93
2023-04-28T12:25:34.925Z,996.60
2023-04-28T12:28:07.640Z,986.00
2023-04-28T12:30:42.304Z,988.92
2023-04-28T12:33:24.236Z,994.27
2023-04-28T12:35:50.953Z,1000.38
2023-04-28T12:38:18.002Z,999.60
2023-04-28T12:40:44.744Z,1005.65
2023-04-28T12:43:11.443Z,996.65
2023-04-28T12:45:38.995Z,996.40
2023-04-28T12:48:06.488Z,1003.40
2023-04-28T12:50:33.592Z,1001.10
2023-04-28T12:53:00.374Z,1006.47
2023-04-28T12:55:27.189Z,1002.42
2023-04-28T12:57:55.305Z,1009.10
2023-04-28T13:00:23.549Z,1011.30
2023-04-28T13:02:53.221Z,1000.88
2023-04-28T13:05:20.115Z,997.83
2023-04-28T13:07:47.686Z,1022.40
2023-04-28T13:10:14.387Z,1024.17
2023-04-28T13:12:41.506Z,1024.30
2023-04-28T13:15:09.018Z,1032.15
2023-04-28T13:17:35.780Z,1021.75
2023-04-28T13:20:03.808Z,1027.78
2023-04-28T13:22:30.620Z,1024.82
2023-04-28T13:24:57.639Z,1028.88
2023-04-28T13:27:24.413Z,1031.85
2023-04-28T13:29:51.619Z,1042.55
2023-04-28T13:32:18.483Z,1048.40
2023-04-28T13:34:45.430Z,1053.82
2023-04-28T13:37:12.205Z,1055.88
2023-04-28T13:39:38.803Z,1055.10
2023-04-28T13:42:06.817Z,1047.43
2023-04-28T13:44:33.635Z,1041.07
2023-04-28T13:47:00.356Z,1042.05
2023-04-28T13:49:27.027Z,1036.05
2023-04-28T13:51:53.623Z,1034.90
2023-04-28T13:54:21.275Z,1042.95
2023-04-28T13:56:48.196Z,1049.10
2023-04-28T13:59:14.930Z,1050.88
2023-04-28T14:01:41.628Z,1056.55
2023-04-28T14:04:08.441Z,1054.80
2023-04-28T14:06:35.369Z,1057.43
2023-04-28T14:09:03.355Z,1047.78
2023-04-28T14:11:30.019Z,1054.40
2023-04-28T14:13:57.390Z,1051.32
2023-04-28T14:16:24.139Z,1052.88
2023-04-28T14:18:51.046Z,1055.10
2023-04-28T14:21:17.726Z,1048.53
2023-04-28T14:23:44.331Z,1055.43
2023-04-28T14:26:11.677Z,1055.95
2023-04-28T14:28:38.523Z,1056.23
2023-04-28T14:31:09.230Z,1047.90
2023-04-28T14:33:36.707Z,1056.95
2023-04-28T14:36:03.982Z,1051.63
2023-04-28T14:38:30.858Z,1048.22
2023-04-28T14:40:57.841Z,1049.18
2023-04-28T14:43:24.786Z,1051.78
2023-04-28T14:45:51.909Z,1056.78
2023-04-28T14:48:19.092Z,1058.73
2023-04-28T14:50:46.209Z,1061.72
2023-04-28T14:53:12.927Z,1060.45
2023-04-28T14:55:39.612Z,1056.82
2023-04-28T14:58:06.239Z,1054.57
2023-04-28T15:00:33.218Z,1052.05
2023-04-28T15:03:00.084Z,1054.70
2023-04-28T15:05:27.182Z,1061.82
2023-04-28T15:07:53.864Z,1054.35
2023-04-28T15:10:21.159Z,1055.20
2023-04-28T15:12:48.811Z,1055.53
2023-04-28T15:15:15.421Z,1061.75
2023-04-28T15:17:42.134Z,1047.97
2023-04-28T15:20:09.363Z,1051.50
2023-04-28T15:22:37.350Z,1053.07
2023-04-28T15:25:04.158Z,1050.22
2023-04-28T15:27:31.035Z,1050.22
2023-04-28T15:29:57.799Z,1046.80
2023-04-28T15:32:24.700Z,1050.28
2023-04-28T15:34:51.682Z,1046.00
2023-04-28T15:37:38.929Z,1045.22
2023-04-28T15:40:06.471Z,1040.13
2023-04-28T15:42:33.987Z,1043.43
2023-04-28T15:45:02.397Z,1040.97
2023-04-28T15:47:33.192Z,1043.97
2023-04-28T15:49:59.991Z,1048.50
2023-04-28T15:52:27.112Z,1045.22
2023-04-28T15:54:55.909Z,1047.90
2023-04-28T15:57:22.699Z,1043.35
2023-04-28T15:59:49.501Z,1040.28
2023-04-28T16:02:16.477Z,1047.72
2023-04-28T16:04:43.308Z,1043.30
2023-04-28T16:07:10.143Z,1046.28
2023-04-28T16:09:36.762Z,1045.25
2023-04-28T16:12:04.225Z,1045.95
2023-04-28T16:14:31.130Z,1045.90
2023-04-28T16:16:57.974Z,1046.95
2023-04-28T16:19:25.844Z,1044.63
2023-04-28T16:21:52.523Z,1044.55
2023-04-28T16:24:22.154Z,1047.45
2023-04-28T16:26:48.792Z,1044.10
2023-04-28T16:29:15.425Z,1044.68
2023-04-28T16:31:42.183Z,1037.32
2023-04-28T16:34:08.898Z,1045.93
2023-04-28T16:36:35.503Z,1041.32
2023-04-28T16:39:02.073Z,1041.80
2023-04-28T16:41:28.823Z,1037.78
2023-04-28T16:43:55.593Z,1036.20
2023-04-28T16:46:22.421Z,1040.70
2023-04-28T16:48:49.596Z,1040.38
2023-04-28T16:51:16.227Z,1039.07
2023-04-28T16:53:42.862Z,1035.47
2023-04-28T16:56:10.790Z,1033.30
2023-04-28T16:58:37.934Z,1034.07
2023-04-28T17:01:04.720Z,1038.53
2023-04-28T17:03:31.520Z,1032.80
2023-04-28T17:05:59.501Z,1032.53
2023-04-28T17:08:26.706Z,1032.63
2023-04-28T17:10:53.411Z,1026.75
2023-04-28T17:13:20.070Z,1032.45
2023-04-28T17:15:54.258Z,1020.15
2023-04-28T17:18:21.175Z,1021.85
2023-04-28T17:20:48.152Z,1020.28
2023-04-28T17:23:15.137Z,1021.25
2023-04-28T17:25:41.799Z,1021.08
2023-04-28T17:28:08.479Z,1027.35
2023-04-28T17:30:36.091Z,1023.13
2023-04-28T17:33:03.077Z,1011.28
2023-04-28T17:35:29.901Z,1008.55
2023-04-28T17:37:56.924Z,1008.50
2023-04-28T17:40:24.273Z,1015.17
2023-04-28T17:42:51.496Z,1012.17
2023-04-28T17:45:18.190Z,1000.05
2023-04-28T17:47:44.805Z,1011.83
2023-04-28T17:50:11.495Z,1006.40
2023-04-28T17:52:38.850Z,999.58
2023-04-28T17:55:06.187Z,1007.47
2023-04-28T17:57:32.989Z,1006.20
2023-04-28T17:59:59.693Z,998.17
2023-04-28T18:02:26.765Z,999.30
2023-04-28T18:04:53.734Z,1000.05
2023-04-28T18:07:20.667Z,1000.33
2023-04-28T18:09:47.249Z,994.60
2023-04-28T18:12:13.920Z,1005.80
2023-04-28T18:14:44.343Z,998.28
2023-04-28T18:17:11.094Z,999.70
2023-04-28T18:19:37.707Z,997.42
2023-04-28T18:22:04.327Z,996.75
2023-04-28T18:24:30.924Z,999.80
2023-04-28T18:26:57.584Z,1001.90
2023-04-28T18:29:24.393Z,1000.83
2023-04-28T18:31:51.351Z,1001.70
2023-04-28T18:34:18.436Z,991.13
2023-04-28T18:36:45.240Z,994.30
2023-04-28T18:39:12.461Z,993.07
2023-04-28T18:41:40.114Z,990.90
2023-04-28T18:44:06.872Z,990.58
2023-04-28T18:46:34.532Z,996.00
2023-04-28T18:49:03.071Z,987.70
2023-04-28T18:51:29.825Z,994.15
2023-04-28T18:53:56.680Z,989.33
2023-04-28T18:56:24.495Z,990.22
2023-04-28T18:58:51.257Z,986.97
2023-04-28T19:01:18.306Z,993.17
2023-04-28T19:03:45.331Z,988.93
2023-04-28T19:06:12.691Z,988.78
2023-04-28T19:08:39.370Z,985.53
2023-04-28T19:11:09.552Z,986.35
2023-04-28T19:13:37.484Z,984.45
2023-04-28T19:16:05.247Z,985.55
2023-04-28T19:18:32.982Z,981.85
2023-04-28T19:21:00.792Z,982.90
2023-04-28T19:23:28.293Z,979.97
2023-04-28T19:25:56.831Z,983.03
2023-04-28T19:28:25.870Z,982.13
2023-04-28T19:30:57.113Z,983.22
2023-04-28T19:33:27.832Z,985.72
2023-04-28T19:35:55.209Z,985.30
2023-04-28T19:38:23.184Z,980.37
2023-04-28T19:40:51.010Z,991.13
2023-04-28T19:43:17.992Z,991.83
2023-04-28T19:45:46.550Z,991.03
2023-04-28T19:48:14.369Z,993.55
2023-04-28T19:50:41.991Z,995.33
2023-04-28T19:53:09.433Z,991.40
2023-04-28T19:55:36.927Z,992.30
2023-04-28T19:58:05.955Z,991.53
2023-04-28T20:00:32.921Z,995.30
2023-04-28T20:03:00.026Z,982.38
2023-04-28T20:05:27.223Z,986.00
2023-04-28T20:07:56.269Z,988.70
2023-04-28T20:10:24.052Z,988.70
2023-04-28T20:12:50.951Z,979.53
2023-04-28T20:15:18.063Z,983.35
2023-04-28T20:17:45.871Z,984.80
2023-04-28T20:20:12.907Z,987.63
2023-04-28T20:22:40.943Z,981.43
2023-04-28T20:25:10.299Z,984.15
2023-04-28T20:27:37.218Z,982.80
2023-04-28T20:30:04.831Z,983.08
2023-04-28T20:32:31.713Z,986.92
2023-04-28T20:34:58.527Z,984.83
2023-04-28T20:37:26.356Z,989.40
2023-04-28T20:39:53.490Z,987.65
2023-04-28T20:42:20.335Z,987.70
2023-04-28T20:44:47.121Z,987.47
2023-04-28T20:47:14.111Z,990.15
2023-04-28T20:49:42.265Z,995.53
2023-04-28T20:52:09.082Z,998.13
2023-04-28T20:54:36.410Z,989.67
2023-04-28T20:57:04.598Z,991.83
2023-04-28T20:59:32.787Z,997.65
2023-04-28T21:02:00.304Z,994.55
2023-04-28T21:04:28.404Z,996.45
2023-04-28T21:06:55.612Z,1004.67
2023-04-28T21:09:25.112Z,996.92
2023-04-28T21:11:52.178Z,996.22
2023-04-28T21:14:19.207Z,1002.88
2023-04-28T21:16:46.103Z,995.10
2023-04-28T21:19:13.026Z,998.20
2023-04-28T21:21:39.752Z,999.77
2023-04-28T21:24:07.967Z,997.57
2023-04-28T21:26:35.834Z,994.88
2023-04-28T21:29:02.917Z,1003.55
2023-04-28T21:31:30.547Z,1002.30
2023-04-28T21:33:57.559Z,996.03
2023-04-28T21:36:24.407Z,1002.28
2023-04-28T21:38:51.514Z,1004.42
2023-04-28T21:41:18.397Z,992.50
2023-04-28T21:43:45.141Z,1000.63
2023-04-28T21:46:12.936Z,996.22
2023-04-28T21:48:39.772Z,991.55
2023-04-28T21:51:06.575Z,990.78
2023-04-28T21:53:33.457Z,989.08
2023-04-28T21:56:00.222Z,989.63
2023-04-28T21:58:27.091Z,995.85
2023-04-28T22:00:55.082Z,990.80
2023-04-28T22:03:22.410Z,986.47
2023-04-28T22:05:49.732Z,989.00
2023-04-28T22:08:17.073Z,995.03
2023-04-28T22:10:45.510Z,995.15
2023-04-28T22:13:15.890Z,994.13
2023-04-28T22:15:42.961Z,988.03
2023-04-28T22:18:09.746Z,991.63
2023-04-28T22:20:36.703Z,995.75
2023-04-28T22:23:03.574Z,990.97
2023-04-28T22:25:30.379Z,993.77
2023-04-28T22:27:57.174Z,992.97
2023-04-28T22:30:25.962Z,993.13
2023-04-28T22:32:53.223Z,995.50
2023-04-28T22:35:20.189Z,992.13
2023-04-28T22:37:46.896Z,992.33
2023-04-28T22:40:13.821Z,989.57
2023-04-28T22:42:41.833Z,990.28
2023-04-28T22:45:10.466Z,997.15
2023-04-28T22:47:40.428Z,989.28
2023-04-28T22:50:11.505Z,986.08
2023-04-28T22:52:38.526Z,986.03
2023-04-28T22:55:06.588Z,983.53
2023-04-28T22:57:33.443Z,989.00
2023-04-28T23:00:00.471Z,986.97
2023-04-28T23:02:27.277Z,988.95
2023-04-28T23:04:54.348Z,992.65
2023-04-28T23:07:21.263Z,991.08
2023-04-28T23:09:48.099Z,991.08
2023-04-28T23:12:15.051Z,988.07
2023-04-28T23:14:41.730Z,994.28
2023-04-28T23:17:08.515Z,987.08
2023-04-28T23:19:38.777Z,993.25
2023-04-28T23:22:07.078Z,996.20
2023-04-28T23:24:34.762Z,990.33
2023-04-28T23:27:01.752Z,989.88
2023-04-28T23:29:28.756Z,996.55
